Chester, SC

1:50 AM EDT on April 26, 2015 (GMT -0400)
Chester | | Change Station
CLOSE
Current Station
Airport
Location: Chester,
Elevation: 656 ft
Nearby Weather Stations

Elev 656 ft 34.79 °N, 81.20 °W | Updated 15 minutes ago

Fog
Fog
63 °F
Feels Like 63 °F
N
4
Wind Variable Wind from NE

Today
High -- | Low -- °F
--% Chance of Precip.
Yesterday
High -- | Low -- °F
Precip. -- in
6:40 AM 8:05 PM
First Quarter, 52% visible
Pressure 29.59 in
Visibility 0.5 miles
Clouds Overcast 200 ft
Dew Point 63 °F
Humidity 100%
Rainfall 0.00 in
Snow Depth Not available.
UV 0 out of 12
Pollen 4.50 out of 12
Air Quality Not available.
Flu Activity Local Activity
METAR KDCM 260535Z AUTO 04003KT 1/2SM FG OVC002 17/17 A2959 RMK AO2

More Conditions Fewer Conditions

Pressure 29.59 in
Visibility 0.5 miles
Clouds Overcast 200 ft
Dew Point 63 °F
Humidity 100%
Rainfall 0.00 in
Snow Depth Not available.
UV 0 out of 12
Pollen 4.50 out of 12
Air Quality Not available.
Flu Activity Local Activity
METAR KDCM 260535Z AUTO 04003KT 1/2SM FG OVC002 17/17 A2959 RMK AO2

More Conditions Fewer Conditions

The full scope of the disaster following a powerful 7.8-magnitude earthquake in Nepal may not come into view for days, but global charities are already sending emergency aid. Click to see how you can help.

10-Day Weather Forecast

Almanac

Astronomy

Apr. 26, 2015 Rise Set
Actual Time
Civil Twilight
Nautical Twilight
Astronomical Twilight
Moon
Length of Visible Light
Length of Day
Tomorrow will be .
, % of the Moon is Illuminated

Today's Extremes

State Highs State Lows

Community

WunderPhotos

Upload Photos

1,816,946 photos uploaded!

WunderBlogs® & News

Nearby

Air Quality

  Air Quality AQ Index Pollutant
Not available.

Snow Depth

Station Depth Elevation

Earthquake Activity

City Distance Mag. Time & Date
Minimum magnitude displayed is 2.5.

Coastal Water Temperatures

Place Temperature

Stations

Nearby Weather Stations

Station Location Temp. Windchill Dew Point Humidity Wind Precip. Elev Updated Type